sensor_id;sensor_type;location;lat;lon;timestamp;P1;durP1;ratioP1;P2;durP2;ratioP2
52586;SDS011;38480;52.724;6.436;2023-12-14T00:01:21;25.43;;;15.37;;
52586;SDS011;38480;52.724;6.436;2023-12-14T00:03:47;30.00;;;15.60;;
52586;SDS011;38480;52.724;6.436;2023-12-14T00:06:14;27.97;;;16.17;;
52586;SDS011;38480;52.724;6.436;2023-12-14T00:08:40;28.33;;;15.00;;
52586;SDS011;38480;52.724;6.436;2023-12-14T00:11:07;27.87;;;15.50;;
52586;SDS011;38480;52.724;6.436;2023-12-14T00:13:33;25.47;;;14.40;;
52586;SDS011;38480;52.724;6.436;2023-12-14T00:15:59;28.53;;;14.27;;
52586;SDS011;38480;52.724;6.436;2023-12-14T00:18:25;24.00;;;14.50;;
52586;SDS011;38480;52.724;6.436;2023-12-14T00:20:52;23.60;;;14.50;;
52586;SDS011;38480;52.724;6.436;2023-12-14T00:23:19;23.00;;;13.77;;
52586;SDS011;38480;52.724;6.436;2023-12-14T00:25:45;26.70;;;15.20;;
52586;SDS011;38480;52.724;6.436;2023-12-14T00:28:11;20.87;;;13.13;;
52586;SDS011;38480;52.724;6.436;2023-12-14T00:30:37;25.07;;;13.70;;
52586;SDS011;38480;52.724;6.436;2023-12-14T00:33:03;25.97;;;14.70;;
52586;SDS011;38480;52.724;6.436;2023-12-14T00:35:29;26.27;;;14.20;;
52586;SDS011;38480;52.724;6.436;2023-12-14T00:37:55;24.00;;;13.33;;
52586;SDS011;38480;52.724;6.436;2023-12-14T00:40:21;23.70;;;14.27;;
52586;SDS011;38480;52.724;6.436;2023-12-14T00:42:47;22.30;;;12.80;;
52586;SDS011;38480;52.724;6.436;2023-12-14T00:45:13;24.23;;;14.10;;
52586;SDS011;38480;52.724;6.436;2023-12-14T00:47:39;24.73;;;14.67;;
52586;SDS011;38480;52.724;6.436;2023-12-14T00:50:05;26.00;;;13.90;;
52586;SDS011;38480;52.724;6.436;2023-12-14T00:52:31;27.33;;;14.27;;
52586;SDS011;38480;52.724;6.436;2023-12-14T00:54:57;22.53;;;13.50;;
52586;SDS011;38480;52.724;6.436;2023-12-14T00:57:23;23.13;;;13.57;;
52586;SDS011;38480;52.724;6.436;2023-12-14T00:59:49;23.97;;;14.30;;
52586;SDS011;38480;52.724;6.436;2023-12-14T01:02:15;28.20;;;13.63;;
52586;SDS011;38480;52.724;6.436;2023-12-14T01:04:41;22.53;;;12.73;;
52586;SDS011;38480;52.724;6.436;2023-12-14T01:07:07;23.47;;;13.30;;
52586;SDS011;38480;52.724;6.436;2023-12-14T01:09:34;20.33;;;12.73;;
52586;SDS011;38480;52.724;6.436;2023-12-14T01:12:00;21.10;;;12.43;;
52586;SDS011;38480;52.724;6.436;2023-12-14T01:14:26;23.93;;;12.90;;
52586;SDS011;38480;52.724;6.436;2023-12-14T01:16:52;21.13;;;11.97;;
52586;SDS011;38480;52.724;6.436;2023-12-14T01:19:18;23.30;;;13.20;;
52586;SDS011;38480;52.724;6.436;2023-12-14T01:21:44;19.50;;;11.77;;
52586;SDS011;38480;52.724;6.436;2023-12-14T01:24:10;18.70;;;11.43;;
52586;SDS011;38480;52.724;6.436;2023-12-14T01:26:36;22.63;;;12.23;;
52586;SDS011;38480;52.724;6.436;2023-12-14T01:29:02;24.93;;;12.43;;
52586;SDS011;38480;52.724;6.436;2023-12-14T01:31:28;22.60;;;12.40;;
52586;SDS011;38480;52.724;6.436;2023-12-14T01:33:54;23.97;;;12.70;;
52586;SDS011;38480;52.724;6.436;2023-12-14T01:36:23;21.27;;;12.20;;
52586;SDS011;38480;52.724;6.436;2023-12-14T01:38:49;25.47;;;13.90;;
52586;SDS011;38480;52.724;6.436;2023-12-14T01:41:15;19.90;;;11.87;;
52586;SDS011;38480;52.724;6.436;2023-12-14T01:43:41;21.93;;;12.27;;
52586;SDS011;38480;52.724;6.436;2023-12-14T01:46:07;24.40;;;12.57;;
52586;SDS011;38480;52.724;6.436;2023-12-14T01:48:34;24.50;;;12.40;;
52586;SDS011;38480;52.724;6.436;2023-12-14T01:51:00;20.50;;;12.07;;
52586;SDS011;38480;52.724;6.436;2023-12-14T01:53:26;19.30;;;12.03;;
52586;SDS011;38480;52.724;6.436;2023-12-14T01:55:52;23.40;;;11.97;;
52586;SDS011;38480;52.724;6.436;2023-12-14T01:58:18;22.33;;;12.07;;
52586;SDS011;38480;52.724;6.436;2023-12-14T02:03:25;24.97;;;13.23;;
52586;SDS011;38480;52.724;6.436;2023-12-14T02:05:51;19.43;;;11.60;;
52586;SDS011;38480;52.724;6.436;2023-12-14T02:08:17;16.27;;;10.70;;
52586;SDS011;38480;52.724;6.436;2023-12-14T02:10:43;21.80;;;12.63;;
52586;SDS011;38480;52.724;6.436;2023-12-14T02:13:09;22.70;;;12.83;;
52586;SDS011;38480;52.724;6.436;2023-12-14T02:15:35;24.27;;;12.07;;
52586;SDS011;38480;52.724;6.436;2023-12-14T02:18:01;20.77;;;12.20;;
52586;SDS011;38480;52.724;6.436;2023-12-14T02:20:27;20.13;;;11.57;;
52586;SDS011;38480;52.724;6.436;2023-12-14T02:22:54;20.17;;;11.53;;
52586;SDS011;38480;52.724;6.436;2023-12-14T02:25:20;23.03;;;12.10;;
52586;SDS011;38480;52.724;6.436;2023-12-14T02:27:47;25.73;;;11.50;;
52586;SDS011;38480;52.724;6.436;2023-12-14T02:30:14;20.57;;;11.53;;
52586;SDS011;38480;52.724;6.436;2023-12-14T02:32:40;22.37;;;12.47;;
52586;SDS011;38480;52.724;6.436;2023-12-14T02:35:06;23.70;;;12.53;;
52586;SDS011;38480;52.724;6.436;2023-12-14T02:37:33;24.83;;;12.70;;
52586;SDS011;38480;52.724;6.436;2023-12-14T02:40:02;23.97;;;11.83;;
52586;SDS011;38480;52.724;6.436;2023-12-14T02:42:28;18.90;;;11.40;;
52586;SDS011;38480;52.724;6.436;2023-12-14T02:44:54;22.07;;;12.67;;
52586;SDS011;38480;52.724;6.436;2023-12-14T02:47:20;20.07;;;12.10;;
52586;SDS011;38480;52.724;6.436;2023-12-14T02:49:46;22.30;;;12.27;;
52586;SDS011;38480;52.724;6.436;2023-12-14T02:52:12;23.20;;;12.67;;
52586;SDS011;38480;52.724;6.436;2023-12-14T02:54:38;22.20;;;12.37;;
52586;SDS011;38480;52.724;6.436;2023-12-14T02:57:05;24.67;;;13.23;;
52586;SDS011;38480;52.724;6.436;2023-12-14T02:59:31;19.87;;;10.67;;
52586;SDS011;38480;52.724;6.436;2023-12-14T03:01:57;22.70;;;11.70;;
52586;SDS011;38480;52.724;6.436;2023-12-14T03:04:24;22.20;;;11.50;;
52586;SDS011;38480;52.724;6.436;2023-12-14T03:06:50;23.97;;;13.13;;
52586;SDS011;38480;52.724;6.436;2023-12-14T03:09:16;24.23;;;12.23;;
52586;SDS011;38480;52.724;6.436;2023-12-14T03:11:44;23.63;;;11.97;;
52586;SDS011;38480;52.724;6.436;2023-12-14T03:14:10;24.30;;;11.73;;
52586;SDS011;38480;52.724;6.436;2023-12-14T03:16:36;23.27;;;11.43;;
52586;SDS011;38480;52.724;6.436;2023-12-14T03:19:02;23.57;;;11.73;;
52586;SDS011;38480;52.724;6.436;2023-12-14T03:21:28;21.43;;;12.13;;
52586;SDS011;38480;52.724;6.436;2023-12-14T03:23:54;23.83;;;11.73;;
52586;SDS011;38480;52.724;6.436;2023-12-14T03:26:20;24.30;;;12.03;;
52586;SDS011;38480;52.724;6.436;2023-12-14T03:28:46;27.03;;;11.97;;
52586;SDS011;38480;52.724;6.436;2023-12-14T03:31:12;25.57;;;11.80;;
52586;SDS011;38480;52.724;6.436;2023-12-14T03:33:39;20.53;;;11.40;;
52586;SDS011;38480;52.724;6.436;2023-12-14T03:36:05;25.93;;;11.27;;
52586;SDS011;38480;52.724;6.436;2023-12-14T03:38:31;22.83;;;11.80;;
52586;SDS011;38480;52.724;6.436;2023-12-14T03:40:57;26.10;;;11.57;;
52586;SDS011;38480;52.724;6.436;2023-12-14T03:43:23;26.37;;;12.50;;
52586;SDS011;38480;52.724;6.436;2023-12-14T03:45:49;21.60;;;11.73;;
52586;SDS011;38480;52.724;6.436;2023-12-14T03:48:15;23.43;;;11.97;;
52586;SDS011;38480;52.724;6.436;2023-12-14T03:50:41;20.23;;;11.27;;
52586;SDS011;38480;52.724;6.436;2023-12-14T03:53:07;27.27;;;11.40;;
52586;SDS011;38480;52.724;6.436;2023-12-14T03:55:34;24.20;;;10.77;;
52586;SDS011;38480;52.724;6.436;2023-12-14T03:58:00;22.27;;;11.57;;
52586;SDS011;38480;52.724;6.436;2023-12-14T04:00:26;23.30;;;11.57;;
52586;SDS011;38480;52.724;6.436;2023-12-14T04:02:52;20.17;;;10.00;;
52586;SDS011;38480;52.724;6.436;2023-12-14T04:05:18;22.53;;;10.17;;
52586;SDS011;38480;52.724;6.436;2023-12-14T04:07:44;16.23;;;9.57;;
52586;SDS011;38480;52.724;6.436;2023-12-14T04:10:11;17.30;;;9.07;;
52586;SDS011;38480;52.724;6.436;2023-12-14T04:12:37;19.77;;;10.27;;
52586;SDS011;38480;52.724;6.436;2023-12-14T04:15:04;22.90;;;10.17;;
52586;SDS011;38480;52.724;6.436;2023-12-14T04:17:30;24.10;;;10.73;;
52586;SDS011;38480;52.724;6.436;2023-12-14T04:19:56;23.57;;;10.13;;
52586;SDS011;38480;52.724;6.436;2023-12-14T04:22:22;17.87;;;8.80;;
52586;SDS011;38480;52.724;6.436;2023-12-14T04:24:48;17.13;;;9.33;;
52586;SDS011;38480;52.724;6.436;2023-12-14T04:27:14;19.57;;;9.70;;
52586;SDS011;38480;52.724;6.436;2023-12-14T04:29:40;17.57;;;9.23;;
52586;SDS011;38480;52.724;6.436;2023-12-14T04:32:07;20.63;;;10.60;;
52586;SDS011;38480;52.724;6.436;2023-12-14T04:34:33;15.67;;;9.70;;
52586;SDS011;38480;52.724;6.436;2023-12-14T04:36:59;14.50;;;8.80;;
52586;SDS011;38480;52.724;6.436;2023-12-14T04:39:25;15.27;;;9.30;;
52586;SDS011;38480;52.724;6.436;2023-12-14T04:41:51;18.87;;;9.37;;
52586;SDS011;38480;52.724;6.436;2023-12-14T04:44:18;15.23;;;8.77;;
52586;SDS011;38480;52.724;6.436;2023-12-14T04:46:44;16.70;;;9.43;;
52586;SDS011;38480;52.724;6.436;2023-12-14T04:49:09;13.17;;;8.63;;
52586;SDS011;38480;52.724;6.436;2023-12-14T04:51:36;15.30;;;9.00;;
52586;SDS011;38480;52.724;6.436;2023-12-14T04:54:02;17.70;;;9.23;;
52586;SDS011;38480;52.724;6.436;2023-12-14T04:56:28;20.07;;;9.80;;
52586;SDS011;38480;52.724;6.436;2023-12-14T04:58:54;18.17;;;9.63;;
52586;SDS011;38480;52.724;6.436;2023-12-14T05:01:20;19.10;;;11.03;;
52586;SDS011;38480;52.724;6.436;2023-12-14T05:03:46;19.27;;;10.00;;
52586;SDS011;38480;52.724;6.436;2023-12-14T05:06:12;21.73;;;10.67;;
52586;SDS011;38480;52.724;6.436;2023-12-14T05:08:38;19.03;;;10.23;;
52586;SDS011;38480;52.724;6.436;2023-12-14T05:11:04;22.40;;;10.90;;
52586;SDS011;38480;52.724;6.436;2023-12-14T05:13:30;22.27;;;11.30;;
52586;SDS011;38480;52.724;6.436;2023-12-14T05:15:56;18.53;;;10.50;;
52586;SDS011;38480;52.724;6.436;2023-12-14T05:18:26;24.37;;;10.97;;
52586;SDS011;38480;52.724;6.436;2023-12-14T05:20:52;20.20;;;10.90;;
52586;SDS011;38480;52.724;6.436;2023-12-14T05:23:18;23.13;;;12.00;;
52586;SDS011;38480;52.724;6.436;2023-12-14T05:25:44;20.03;;;11.23;;
52586;SDS011;38480;52.724;6.436;2023-12-14T05:28:10;24.43;;;12.07;;
52586;SDS011;38480;52.724;6.436;2023-12-14T05:30:36;21.07;;;11.07;;
52586;SDS011;38480;52.724;6.436;2023-12-14T05:33:02;23.43;;;10.60;;
52586;SDS011;38480;52.724;6.436;2023-12-14T05:35:29;21.90;;;10.53;;
52586;SDS011;38480;52.724;6.436;2023-12-14T05:37:55;21.90;;;10.43;;
52586;SDS011;38480;52.724;6.436;2023-12-14T05:40:21;20.27;;;11.07;;
52586;SDS011;38480;52.724;6.436;2023-12-14T05:42:47;23.67;;;10.70;;
52586;SDS011;38480;52.724;6.436;2023-12-14T05:45:13;17.40;;;10.40;;
52586;SDS011;38480;52.724;6.436;2023-12-14T05:47:39;20.20;;;10.23;;
52586;SDS011;38480;52.724;6.436;2023-12-14T05:50:06;22.20;;;10.63;;
52586;SDS011;38480;52.724;6.436;2023-12-14T05:52:35;16.00;;;10.00;;
52586;SDS011;38480;52.724;6.436;2023-12-14T05:55:01;21.13;;;11.20;;
52586;SDS011;38480;52.724;6.436;2023-12-14T05:57:27;21.17;;;11.10;;
52586;SDS011;38480;52.724;6.436;2023-12-14T05:59:53;21.23;;;10.30;;
52586;SDS011;38480;52.724;6.436;2023-12-14T06:02:19;19.93;;;11.00;;
52586;SDS011;38480;52.724;6.436;2023-12-14T06:04:45;18.73;;;11.63;;
52586;SDS011;38480;52.724;6.436;2023-12-14T06:07:11;23.37;;;11.00;;
52586;SDS011;38480;52.724;6.436;2023-12-14T06:09:37;19.80;;;11.03;;
52586;SDS011;38480;52.724;6.436;2023-12-14T06:12:05;24.23;;;12.00;;
52586;SDS011;38480;52.724;6.436;2023-12-14T06:14:31;23.50;;;10.90;;
52586;SDS011;38480;52.724;6.436;2023-12-14T06:16:57;21.53;;;10.87;;
52586;SDS011;38480;52.724;6.436;2023-12-14T06:19:23;20.37;;;11.53;;
52586;SDS011;38480;52.724;6.436;2023-12-14T06:21:49;15.30;;;9.03;;
52586;SDS011;38480;52.724;6.436;2023-12-14T06:24:15;21.90;;;9.73;;
52586;SDS011;38480;52.724;6.436;2023-12-14T06:26:42;16.67;;;10.50;;
52586;SDS011;38480;52.724;6.436;2023-12-14T06:29:09;16.67;;;10.33;;
52586;SDS011;38480;52.724;6.436;2023-12-14T06:31:35;21.80;;;11.27;;
52586;SDS011;38480;52.724;6.436;2023-12-14T06:34:02;19.93;;;11.20;;
52586;SDS011;38480;52.724;6.436;2023-12-14T06:36:29;20.97;;;10.77;;
52586;SDS011;38480;52.724;6.436;2023-12-14T06:38:56;19.30;;;10.27;;
52586;SDS011;38480;52.724;6.436;2023-12-14T06:41:22;20.43;;;10.27;;
52586;SDS011;38480;52.724;6.436;2023-12-14T06:43:48;19.13;;;11.10;;
52586;SDS011;38480;52.724;6.436;2023-12-14T06:46:14;20.37;;;11.20;;
52586;SDS011;38480;52.724;6.436;2023-12-14T06:48:41;20.93;;;10.83;;
52586;SDS011;38480;52.724;6.436;2023-12-14T06:51:07;22.40;;;10.93;;
52586;SDS011;38480;52.724;6.436;2023-12-14T06:53:33;22.40;;;11.50;;
52586;SDS011;38480;52.724;6.436;2023-12-14T06:56:00;18.73;;;11.80;;
52586;SDS011;38480;52.724;6.436;2023-12-14T06:58:26;18.67;;;10.10;;
52586;SDS011;38480;52.724;6.436;2023-12-14T07:00:52;17.90;;;10.03;;
52586;SDS011;38480;52.724;6.436;2023-12-14T07:03:18;19.33;;;10.83;;
52586;SDS011;38480;52.724;6.436;2023-12-14T07:05:44;21.50;;;10.80;;
52586;SDS011;38480;52.724;6.436;2023-12-14T07:08:10;20.77;;;12.07;;
52586;SDS011;38480;52.724;6.436;2023-12-14T07:10:36;21.43;;;11.20;;
52586;SDS011;38480;52.724;6.436;2023-12-14T07:13:02;23.97;;;10.73;;
52586;SDS011;38480;52.724;6.436;2023-12-14T07:15:28;21.83;;;11.13;;
52586;SDS011;38480;52.724;6.436;2023-12-14T07:17:54;19.43;;;11.07;;
52586;SDS011;38480;52.724;6.436;2023-12-14T07:20:20;18.40;;;10.70;;
52586;SDS011;38480;52.724;6.436;2023-12-14T07:22:46;22.17;;;11.33;;
52586;SDS011;38480;52.724;6.436;2023-12-14T07:25:12;25.90;;;12.90;;
52586;SDS011;38480;52.724;6.436;2023-12-14T07:27:38;19.27;;;10.27;;
52586;SDS011;38480;52.724;6.436;2023-12-14T07:30:04;25.57;;;12.27;;
52586;SDS011;38480;52.724;6.436;2023-12-14T07:32:31;26.03;;;11.13;;
52586;SDS011;38480;52.724;6.436;2023-12-14T07:34:57;19.93;;;11.80;;
52586;SDS011;38480;52.724;6.436;2023-12-14T07:37:22;21.03;;;11.37;;
52586;SDS011;38480;52.724;6.436;2023-12-14T07:39:48;24.00;;;10.53;;
52586;SDS011;38480;52.724;6.436;2023-12-14T07:42:14;14.83;;;9.23;;
52586;SDS011;38480;52.724;6.436;2023-12-14T07:44:44;19.93;;;11.27;;
52586;SDS011;38480;52.724;6.436;2023-12-14T07:47:10;18.53;;;9.73;;
52586;SDS011;38480;52.724;6.436;2023-12-14T07:49:36;15.87;;;10.57;;
52586;SDS011;38480;52.724;6.436;2023-12-14T07:52:02;21.30;;;10.70;;
52586;SDS011;38480;52.724;6.436;2023-12-14T07:54:28;18.10;;;10.40;;
52586;SDS011;38480;52.724;6.436;2023-12-14T07:56:54;23.07;;;11.37;;
52586;SDS011;38480;52.724;6.436;2023-12-14T07:59:20;18.33;;;11.47;;
52586;SDS011;38480;52.724;6.436;2023-12-14T08:01:46;18.80;;;11.13;;
52586;SDS011;38480;52.724;6.436;2023-12-14T08:04:12;22.10;;;10.73;;
52586;SDS011;38480;52.724;6.436;2023-12-14T08:06:38;18.93;;;11.57;;
52586;SDS011;38480;52.724;6.436;2023-12-14T08:09:08;22.50;;;11.13;;
52586;SDS011;38480;52.724;6.436;2023-12-14T08:11:34;19.70;;;11.27;;
52586;SDS011;38480;52.724;6.436;2023-12-14T08:14:00;19.63;;;11.63;;
52586;SDS011;38480;52.724;6.436;2023-12-14T08:16:26;20.57;;;12.33;;
52586;SDS011;38480;52.724;6.436;2023-12-14T08:18:52;22.80;;;12.67;;
52586;SDS011;38480;52.724;6.436;2023-12-14T08:21:19;19.27;;;11.33;;
52586;SDS011;38480;52.724;6.436;2023-12-14T08:23:45;23.17;;;13.17;;
52586;SDS011;38480;52.724;6.436;2023-12-14T08:26:11;22.03;;;12.50;;
52586;SDS011;38480;52.724;6.436;2023-12-14T08:28:40;18.57;;;12.07;;
52586;SDS011;38480;52.724;6.436;2023-12-14T08:31:07;21.50;;;12.83;;
52586;SDS011;38480;52.724;6.436;2023-12-14T08:33:34;23.53;;;12.17;;
52586;SDS011;38480;52.724;6.436;2023-12-14T08:36:01;23.20;;;12.27;;
52586;SDS011;38480;52.724;6.436;2023-12-14T08:38:27;21.37;;;12.03;;
52586;SDS011;38480;52.724;6.436;2023-12-14T08:40:53;17.53;;;11.50;;
52586;SDS011;38480;52.724;6.436;2023-12-14T08:43:19;23.73;;;12.17;;
52586;SDS011;38480;52.724;6.436;2023-12-14T08:45:45;18.93;;;11.83;;
52586;SDS011;38480;52.724;6.436;2023-12-14T08:48:13;27.40;;;13.43;;
52586;SDS011;38480;52.724;6.436;2023-12-14T08:50:39;26.53;;;14.10;;
52586;SDS011;38480;52.724;6.436;2023-12-14T08:53:05;21.47;;;12.70;;
52586;SDS011;38480;52.724;6.436;2023-12-14T08:55:33;22.63;;;12.40;;
52586;SDS011;38480;52.724;6.436;2023-12-14T08:57:59;25.00;;;13.23;;
52586;SDS011;38480;52.724;6.436;2023-12-14T09:00:25;22.50;;;12.33;;
52586;SDS011;38480;52.724;6.436;2023-12-14T09:02:51;18.30;;;11.97;;
52586;SDS011;38480;52.724;6.436;2023-12-14T09:05:17;20.97;;;12.40;;
52586;SDS011;38480;52.724;6.436;2023-12-14T09:07:45;21.70;;;11.73;;
52586;SDS011;38480;52.724;6.436;2023-12-14T09:10:11;24.07;;;12.93;;
52586;SDS011;38480;52.724;6.436;2023-12-14T09:12:38;20.37;;;12.83;;
52586;SDS011;38480;52.724;6.436;2023-12-14T09:15:04;19.93;;;12.47;;
52586;SDS011;38480;52.724;6.436;2023-12-14T09:17:30;21.33;;;12.27;;
52586;SDS011;38480;52.724;6.436;2023-12-14T09:20:00;19.13;;;12.43;;
52586;SDS011;38480;52.724;6.436;2023-12-14T09:22:26;19.10;;;12.43;;
52586;SDS011;38480;52.724;6.436;2023-12-14T09:24:52;18.67;;;11.23;;
52586;SDS011;38480;52.724;6.436;2023-12-14T09:27:18;21.50;;;12.60;;
52586;SDS011;38480;52.724;6.436;2023-12-14T09:29:44;21.70;;;13.47;;
52586;SDS011;38480;52.724;6.436;2023-12-14T09:32:10;20.53;;;12.73;;
52586;SDS011;38480;52.724;6.436;2023-12-14T09:34:36;21.57;;;11.53;;
52586;SDS011;38480;52.724;6.436;2023-12-14T09:37:02;20.53;;;12.10;;
52586;SDS011;38480;52.724;6.436;2023-12-14T09:39:28;19.57;;;12.13;;
52586;SDS011;38480;52.724;6.436;2023-12-14T09:42:04;18.37;;;11.57;;
52586;SDS011;38480;52.724;6.436;2023-12-14T09:44:30;20.80;;;11.97;;
52586;SDS011;38480;52.724;6.436;2023-12-14T09:46:57;24.63;;;12.13;;
52586;SDS011;38480;52.724;6.436;2023-12-14T09:49:25;20.57;;;11.30;;
52586;SDS011;38480;52.724;6.436;2023-12-14T09:51:58;20.17;;;11.33;;
52586;SDS011;38480;52.724;6.436;2023-12-14T09:54:25;19.97;;;11.90;;
52586;SDS011;38480;52.724;6.436;2023-12-14T09:56:52;18.60;;;11.07;;
52586;SDS011;38480;52.724;6.436;2023-12-14T09:59:18;17.87;;;10.50;;
52586;SDS011;38480;52.724;6.436;2023-12-14T10:01:44;18.10;;;10.97;;
52586;SDS011;38480;52.724;6.436;2023-12-14T10:04:12;19.20;;;10.97;;
52586;SDS011;38480;52.724;6.436;2023-12-14T10:06:38;16.70;;;11.07;;
52586;SDS011;38480;52.724;6.436;2023-12-14T10:09:05;18.07;;;10.77;;
52586;SDS011;38480;52.724;6.436;2023-12-14T10:11:43;18.03;;;11.23;;
52586;SDS011;38480;52.724;6.436;2023-12-14T10:14:22;17.20;;;11.47;;
52586;SDS011;38480;52.724;6.436;2023-12-14T10:16:49;21.23;;;11.63;;
52586;SDS011;38480;52.724;6.436;2023-12-14T10:19:19;19.33;;;11.63;;
52586;SDS011;38480;52.724;6.436;2023-12-14T10:21:48;16.43;;;10.77;;
52586;SDS011;38480;52.724;6.436;2023-12-14T10:24:14;20.93;;;12.03;;
52586;SDS011;38480;52.724;6.436;2023-12-14T10:26:40;18.90;;;11.33;;
52586;SDS011;38480;52.724;6.436;2023-12-14T10:29:06;16.47;;;11.00;;
52586;SDS011;38480;52.724;6.436;2023-12-14T10:31:34;19.00;;;10.87;;
52586;SDS011;38480;52.724;6.436;2023-12-14T10:34:02;15.17;;;8.90;;
52586;SDS011;38480;52.724;6.436;2023-12-14T10:36:29;16.80;;;10.63;;
52586;SDS011;38480;52.724;6.436;2023-12-14T10:38:56;16.70;;;10.37;;
52586;SDS011;38480;52.724;6.436;2023-12-14T10:41:22;15.10;;;10.33;;
52586;SDS011;38480;52.724;6.436;2023-12-14T10:43:49;16.57;;;9.73;;
52586;SDS011;38480;52.724;6.436;2023-12-14T10:46:16;21.53;;;11.00;;
52586;SDS011;38480;52.724;6.436;2023-12-14T10:48:43;18.80;;;10.10;;
52586;SDS011;38480;52.724;6.436;2023-12-14T10:51:11;17.53;;;10.57;;
52586;SDS011;38480;52.724;6.436;2023-12-14T10:53:37;19.53;;;10.07;;
52586;SDS011;38480;52.724;6.436;2023-12-14T10:56:04;17.23;;;10.23;;
52586;SDS011;38480;52.724;6.436;2023-12-14T10:58:56;14.67;;;10.47;;
52586;SDS011;38480;52.724;6.436;2023-12-14T11:01:22;14.83;;;9.23;;
52586;SDS011;38480;52.724;6.436;2023-12-14T11:03:55;10.47;;;5.97;;
52586;SDS011;38480;52.724;6.436;2023-12-14T11:08:52;11.20;;;7.17;;
52586;SDS011;38480;52.724;6.436;2023-12-14T11:11:20;14.23;;;8.03;;
52586;SDS011;38480;52.724;6.436;2023-12-14T11:13:53;16.27;;;8.53;;
52586;SDS011;38480;52.724;6.436;2023-12-14T11:16:20;12.60;;;7.65;;
52586;SDS011;38480;52.724;6.436;2023-12-14T11:18:46;14.50;;;9.10;;
52586;SDS011;38480;52.724;6.436;2023-12-14T11:21:17;13.97;;;8.77;;
52586;SDS011;38480;52.724;6.436;2023-12-14T11:26:15;13.70;;;8.07;;
52586;SDS011;38480;52.724;6.436;2023-12-14T11:28:46;10.73;;;7.43;;
52586;SDS011;38480;52.724;6.436;2023-12-14T11:31:14;13.87;;;8.93;;
52586;SDS011;38480;52.724;6.436;2023-12-14T11:33:40;15.43;;;9.20;;
52586;SDS011;38480;52.724;6.436;2023-12-14T11:36:06;12.87;;;8.87;;
52586;SDS011;38480;52.724;6.436;2023-12-14T11:38:33;13.60;;;8.87;;
52586;SDS011;38480;52.724;6.436;2023-12-14T11:41:00;11.67;;;7.97;;
52586;SDS011;38480;52.724;6.436;2023-12-14T11:43:27;15.87;;;8.20;;
52586;SDS011;38480;52.724;6.436;2023-12-14T11:45:53;13.17;;;8.90;;
52586;SDS011;38480;52.724;6.436;2023-12-14T11:48:20;12.43;;;8.00;;
52586;SDS011;38480;52.724;6.436;2023-12-14T11:50:46;11.57;;;8.87;;
52586;SDS011;38480;52.724;6.436;2023-12-14T11:53:13;15.43;;;10.30;;
52586;SDS011;38480;52.724;6.436;2023-12-14T11:55:40;15.00;;;8.17;;
52586;SDS011;38480;52.724;6.436;2023-12-14T11:58:06;14.33;;;8.63;;
52586;SDS011;38480;52.724;6.436;2023-12-14T12:00:33;10.80;;;7.27;;
52586;SDS011;38480;52.724;6.436;2023-12-14T12:03:14;13.57;;;8.27;;
52586;SDS011;38480;52.724;6.436;2023-12-14T12:05:42;12.90;;;8.07;;
52586;SDS011;38480;52.724;6.436;2023-12-14T12:08:09;14.33;;;9.40;;
52586;SDS011;38480;52.724;6.436;2023-12-14T12:10:36;14.27;;;9.13;;
52586;SDS011;38480;52.724;6.436;2023-12-14T12:13:03;13.87;;;8.53;;
52586;SDS011;38480;52.724;6.436;2023-12-14T12:15:34;12.60;;;8.80;;
52586;SDS011;38480;52.724;6.436;2023-12-14T12:18:11;14.50;;;8.10;;
52586;SDS011;38480;52.724;6.436;2023-12-14T12:20:38;16.20;;;9.40;;
52586;SDS011;38480;52.724;6.436;2023-12-14T12:23:04;14.30;;;7.60;;
52586;SDS011;38480;52.724;6.436;2023-12-14T12:25:30;13.00;;;8.07;;
52586;SDS011;38480;52.724;6.436;2023-12-14T12:28:00;13.63;;;7.73;;
52586;SDS011;38480;52.724;6.436;2023-12-14T12:30:27;13.53;;;7.90;;
52586;SDS011;38480;52.724;6.436;2023-12-14T12:32:53;12.80;;;7.27;;
52586;SDS011;38480;52.724;6.436;2023-12-14T12:35:21;10.97;;;7.43;;
52586;SDS011;38480;52.724;6.436;2023-12-14T12:37:47;12.83;;;7.80;;
52586;SDS011;38480;52.724;6.436;2023-12-14T12:40:18;15.70;;;9.33;;
52586;SDS011;38480;52.724;6.436;2023-12-14T12:42:45;12.03;;;8.53;;
52586;SDS011;38480;52.724;6.436;2023-12-14T12:45:13;13.57;;;8.67;;
52586;SDS011;38480;52.724;6.436;2023-12-14T12:47:39;12.47;;;7.57;;
52586;SDS011;38480;52.724;6.436;2023-12-14T12:50:05;15.07;;;8.97;;
52586;SDS011;38480;52.724;6.436;2023-12-14T12:52:31;12.17;;;8.37;;
52586;SDS011;38480;52.724;6.436;2023-12-14T12:54:57;14.97;;;8.67;;
52586;SDS011;38480;52.724;6.436;2023-12-14T12:57:23;16.07;;;9.10;;
52586;SDS011;38480;52.724;6.436;2023-12-14T12:59:49;14.40;;;8.97;;
52586;SDS011;38480;52.724;6.436;2023-12-14T13:02:15;14.17;;;8.47;;
52586;SDS011;38480;52.724;6.436;2023-12-14T13:04:42;15.23;;;8.73;;
52586;SDS011;38480;52.724;6.436;2023-12-14T13:07:08;32.37;;;9.17;;
52586;SDS011;38480;52.724;6.436;2023-12-14T13:09:34;15.27;;;8.33;;
52586;SDS011;38480;52.724;6.436;2023-12-14T13:12:00;15.13;;;8.93;;
52586;SDS011;38480;52.724;6.436;2023-12-14T13:14:26;14.30;;;9.00;;
52586;SDS011;38480;52.724;6.436;2023-12-14T13:16:52;15.37;;;8.87;;
52586;SDS011;38480;52.724;6.436;2023-12-14T13:19:18;14.87;;;8.77;;
52586;SDS011;38480;52.724;6.436;2023-12-14T13:21:44;17.10;;;8.57;;
52586;SDS011;38480;52.724;6.436;2023-12-14T13:24:10;14.77;;;10.20;;
52586;SDS011;38480;52.724;6.436;2023-12-14T13:26:36;15.33;;;9.30;;
52586;SDS011;38480;52.724;6.436;2023-12-14T13:29:02;13.93;;;8.73;;
52586;SDS011;38480;52.724;6.436;2023-12-14T13:31:28;17.60;;;9.50;;
52586;SDS011;38480;52.724;6.436;2023-12-14T13:33:54;13.13;;;8.47;;
52586;SDS011;38480;52.724;6.436;2023-12-14T13:36:20;15.40;;;9.70;;
52586;SDS011;38480;52.724;6.436;2023-12-14T13:38:46;17.57;;;10.37;;
52586;SDS011;38480;52.724;6.436;2023-12-14T13:41:12;13.07;;;9.10;;
52586;SDS011;38480;52.724;6.436;2023-12-14T13:43:38;15.57;;;9.70;;
52586;SDS011;38480;52.724;6.436;2023-12-14T13:46:04;14.37;;;9.80;;
52586;SDS011;38480;52.724;6.436;2023-12-14T13:48:30;15.57;;;10.10;;
52586;SDS011;38480;52.724;6.436;2023-12-14T13:50:56;17.00;;;9.80;;
52586;SDS011;38480;52.724;6.436;2023-12-14T13:53:22;18.07;;;10.33;;
52586;SDS011;38480;52.724;6.436;2023-12-14T13:55:49;19.73;;;10.90;;
52586;SDS011;38480;52.724;6.436;2023-12-14T13:58:15;17.73;;;10.10;;
52586;SDS011;38480;52.724;6.436;2023-12-14T14:00:42;16.27;;;10.27;;
52586;SDS011;38480;52.724;6.436;2023-12-14T14:03:08;15.43;;;10.00;;
52586;SDS011;38480;52.724;6.436;2023-12-14T14:05:34;15.10;;;9.87;;
52586;SDS011;38480;52.724;6.436;2023-12-14T14:08:01;16.13;;;10.40;;
52586;SDS011;38480;52.724;6.436;2023-12-14T14:10:27;16.37;;;9.57;;
52586;SDS011;38480;52.724;6.436;2023-12-14T14:12:53;17.07;;;10.13;;
52586;SDS011;38480;52.724;6.436;2023-12-14T14:15:19;16.20;;;10.50;;
52586;SDS011;38480;52.724;6.436;2023-12-14T14:17:46;16.70;;;10.73;;
52586;SDS011;38480;52.724;6.436;2023-12-14T14:20:16;18.67;;;10.43;;
52586;SDS011;38480;52.724;6.436;2023-12-14T14:22:42;19.77;;;11.67;;
52586;SDS011;38480;52.724;6.436;2023-12-14T14:25:09;19.40;;;10.80;;
52586;SDS011;38480;52.724;6.436;2023-12-14T14:27:35;20.73;;;11.03;;
52586;SDS011;38480;52.724;6.436;2023-12-14T14:30:01;18.37;;;10.53;;